ニース/コート・ダジュール の空港の天気 - METARとTAF

コート・ダジュール空港(ニース) ( LFMN / NCE ) - フランス ニース
飛行場実況気象(Metar)
観測時間11/19 14:30 CET (11/19 13:30 UTC)
風向・風速南東 2m/s
視程10km以上
天気現象
なし
気温15℃
湿度67%
気圧1012hPa
METARLFMN 191330Z 13004KT 100V160 CAVOK 15/09 Q1012 NOSIG
過去の天気等 Google飛行場航空写真 Wunderground天気予報

過去48時間のMETAR

飛行場予報(TAF)
発表時間: 11/19 09:00 CET (11/19 08:00 UTC)
予報対象時間: 19日10時 CET ~ 20日16時 CET
風向・風速南 3m/s
視程10km以上
なし
19日18時 CET ~ 19日20時 CET に徐々に
風向・風速北北西 5m/s
20日9時 CET から
風向・風速東 5m/s
視程10km以上
全天の8割程度の雲 雲底高度 270m
TAF LFMN 190800Z 1909/2015 17006KT CAVOK
BECMG 1917/1919 34010KT
FM200800 09010KT 9999 BKN009